Time;durP1;ratioP1;P1;durP2;ratioP2;P2;SDS_P1;SDS_P2;PMS_P1;PMS_P2;Temp;Humidity;BMP_temperature;BMP_pressure;BME280_temperature;BME280_humidity;BME280_pressure;Samples;Min_cycle;Max_cycle;Signal;HPM_P1;HPM_P2
2023/03/08 00:00:40;;;;;;;4.25;1.15;;;;;;;5.83;57.94;99444.88;5080912;27;99324;-71
2023/03/08 00:03:07;;;;;;;6.25;1.50;;;;;;;5.89;57.87;99436.81;5083246;27;99145;-71
2023/03/08 00:05:34;;;;;;;6.68;1.77;;;;;;;5.84;58.37;99443.94;5083175;27;98801;-71
2023/03/08 00:08:00;;;;;;;9.23;1.33;;;;;;;5.84;57.96;99451.81;5088141;27;98166;-71
2023/03/08 00:10:27;;;;;;;8.35;1.48;;;;;;;5.82;58.04;99458.88;5088804;27;99000;-71
2023/03/08 00:12:53;;;;;;;4.35;1.63;;;;;;;5.80;58.17;99450.22;5085596;27;99473;-70
2023/03/08 00:15:19;;;;;;;5.07;1.40;;;;;;;5.78;58.36;99456.41;5085446;27;98506;-70
2023/03/08 00:17:47;;;;;;;10.27;1.92;;;;;;;5.81;58.04;99462.41;5086044;27;98891;-70
2023/03/08 00:20:14;;;;;;;7.93;1.77;;;;;;;5.80;58.58;99467.72;5076229;27;97585;-70
2023/03/08 00:22:42;;;;;;;6.20;1.27;;;;;;;5.72;58.83;99473.22;5082423;27;96853;-71
2023/03/08 00:25:10;;;;;;;7.03;2.10;;;;;;;5.96;58.27;99472.38;5077918;27;96732;-71
2023/03/08 00:27:37;;;;;;;6.65;1.50;;;;;;;5.73;57.91;99480.19;5076661;27;98839;-71
2023/03/08 00:30:05;;;;;;;8.88;1.50;;;;;;;5.72;58.40;99475.84;5078174;27;99296;-71
2023/03/08 00:32:31;;;;;;;3.13;1.48;;;;;;;5.63;58.66;99478.81;5082278;27;98638;-70
2023/03/08 00:34:59;;;;;;;6.05;1.83;;;;;;;5.73;58.69;99476.69;5091217;27;96917;-70
2023/03/08 00:37:26;;;;;;;19.02;9.68;;;;;;;5.71;58.70;99476.75;5083877;27;98873;-70
2023/03/08 00:39:53;;;;;;;24.85;13.98;;;;;;;5.69;58.38;99473.34;5081966;27;99264;-70
2023/03/08 00:42:20;;;;;;;23.40;15.60;;;;;;;5.34;59.14;99477.19;5084613;27;97579;-70
2023/03/08 00:44:47;;;;;;;27.08;17.02;;;;;;;5.47;59.39;99482.84;5079077;27;97243;-71
2023/03/08 00:47:14;;;;;;;26.95;18.17;;;;;;;5.76;58.73;99481.84;5081801;27;99427;-70
2023/03/08 00:49:42;;;;;;;23.45;13.63;;;;;;;5.76;58.15;99485.31;5078013;27;99102;-70
2023/03/08 00:52:10;;;;;;;10.85;7.50;;;;;;;5.49;58.83;99488.91;5083311;27;99317;-69
2023/03/08 00:54:37;;;;;;;12.15;5.28;;;;;;;5.32;60.01;99488.63;5081166;27;96775;-70
2023/03/08 00:57:04;;;;;;;10.68;3.95;;;;;;;5.29;59.72;99486.13;5087115;27;99261;-70
2023/03/08 00:59:30;;;;;;;8.63;2.90;;;;;;;5.34;59.96;99492.06;5076464;27;98706;-69
2023/03/08 01:01:57;;;;;;;5.95;2.10;;;;;;;5.34;60.01;99498.16;5085128;27;97712;-71
2023/03/08 01:04:23;;;;;;;7.30;1.95;;;;;;;5.27;59.95;99496.63;5088290;27;96786;-71
2023/03/08 01:06:50;;;;;;;13.15;3.55;;;;;;;5.20;60.21;99497.75;5081389;27;99419;-70
2023/03/08 01:09:18;;;;;;;5.15;2.65;;;;;;;5.30;59.89;99501.78;5077744;27;98896;-71
2023/03/08 01:11:44;;;;;;;7.28;2.00;;;;;;;5.33;60.46;99506.91;5083116;27;98790;-71
2023/03/08 01:14:11;;;;;;;7.97;2.08;;;;;;;5.38;59.40;99504.97;5085116;27;97589;-71
2023/03/08 01:16:37;;;;;;;9.32;2.50;;;;;;;5.41;59.88;99504.88;5082804;27;97576;-71
2023/03/08 01:19:05;;;;;;;7.03;3.03;;;;;;;5.35;59.78;99509.47;5079309;27;101902;-71
2023/03/08 01:21:32;;;;;;;6.75;2.53;;;;;;;5.30;59.94;99517.50;5078721;27;97164;-70
2023/03/08 01:23:59;;;;;;;6.97;2.78;;;;;;;5.36;59.81;99511.19;5083776;27;97517;-71
2023/03/08 01:26:27;;;;;;;10.50;2.60;;;;;;;5.33;59.87;99520.00;5085572;27;98866;-70
2023/03/08 01:28:53;;;;;;;7.40;2.60;;;;;;;5.16;60.55;99515.34;5085959;27;100388;-69
2023/03/08 01:31:22;;;;;;;6.63;2.92;;;;;;;4.99;61.14;99512.41;5086866;27;98836;-70
2023/03/08 01:33:49;;;;;;;10.40;3.33;;;;;;;5.20;60.86;99521.31;5084747;27;96860;-72
2023/03/08 01:36:17;;;;;;;5.05;2.80;;;;;;;5.00;61.42;99513.25;5080800;27;99447;-71
2023/03/08 01:38:44;;;;;;;7.15;2.83;;;;;;;4.95;61.68;99518.66;5084285;27;98779;-71
2023/03/08 01:41:15;;;;;;;9.63;3.30;;;;;;;4.93;62.02;99511.75;5085089;27;98753;-69
2023/03/08 01:43:43;;;;;;;6.22;2.95;;;;;;;4.94;61.94;99519.56;5083396;27;97545;-70
2023/03/08 01:46:23;;;;;;;8.60;3.80;;;;;;;5.10;61.11;99515.53;5081368;27;99498;-69
2023/03/08 01:48:54;;;;;;;8.50;3.58;;;;;;;5.00;61.32;99514.13;5079085;27;98798;-69
2023/03/08 01:51:25;;;;;;;7.75;3.58;;;;;;;5.04;62.28;99517.50;5083594;27;96810;-70
2023/03/08 01:53:53;;;;;;;11.13;3.83;;;;;;;5.06;61.31;99524.38;5076975;27;97351;-71
2023/03/08 01:56:21;;;;;;;8.13;3.42;;;;;;;4.92;62.15;99517.91;5085002;27;98387;-70
2023/03/08 01:58:51;;;;;;;6.80;3.65;;;;;;;4.65;62.67;99517.00;5076292;27;101361;-70
2023/03/08 02:01:18;;;;;;;7.75;3.67;;;;;;;4.89;62.45;99516.22;5080016;27;97599;-69
2023/03/08 02:03:45;;;;;;;7.13;4.32;;;;;;;4.70;63.12;99520.34;5088237;27;97260;-70
2023/03/08 02:06:13;;;;;;;10.13;4.28;;;;;;;4.62;63.31;99523.19;5085088;27;102703;-70
2023/03/08 02:08:41;;;;;;;12.77;5.00;;;;;;;4.61;63.19;99521.47;5075308;27;98914;-69
2023/03/08 02:11:08;;;;;;;10.02;4.20;;;;;;;4.87;62.87;99525.03;5081759;27;98038;-70
2023/03/08 02:13:34;;;;;;;10.45;4.35;;;;;;;4.95;62.56;99526.50;5082978;27;97168;-70
2023/03/08 02:16:05;;;;;;;11.18;4.65;;;;;;;5.09;61.79;99533.91;5082067;27;98894;-71
2023/03/08 02:18:32;;;;;;;13.77;5.22;;;;;;;4.99;62.33;99522.88;5079786;27;101086;-71
2023/03/08 02:20:58;;;;;;;10.13;4.90;;;;;;;5.09;61.97;99523.44;5083229;27;98789;-69
2023/03/08 02:23:26;;;;;;;8.63;5.25;;;;;;;5.01;62.37;99525.44;5084312;27;96903;-70
2023/03/08 02:25:54;;;;;;;16.48;5.68;;;;;;;4.91;61.83;99529.28;5085596;27;99151;-71
2023/03/08 02:28:22;;;;;;;11.27;5.10;;;;;;;5.09;62.30;99526.06;5080704;27;99211;-70
2023/03/08 02:30:49;;;;;;;12.60;5.72;;;;;;;5.15;61.55;99521.47;5088999;27;97697;-71
2023/03/08 02:33:16;;;;;;;11.43;6.25;;;;;;;5.00;62.56;99526.34;5082648;27;96797;-71
2023/03/08 02:35:43;;;;;;;11.20;5.95;;;;;;;4.99;61.69;99527.28;5086612;27;99616;-70
2023/03/08 02:38:10;;;;;;;13.05;6.07;;;;;;;4.93;61.93;99537.91;5085583;27;99285;-70
2023/03/08 02:40:39;;;;;;;14.35;6.70;;;;;;;4.92;62.63;99537.09;5078335;27;97628;-71
2023/03/08 02:43:05;;;;;;;12.10;6.40;;;;;;;4.92;62.61;99542.31;5077881;27;98999;-70
2023/03/08 02:45:33;;;;;;;15.50;6.60;;;;;;;4.87;62.59;99540.72;5082528;27;99570;-70
2023/03/08 02:47:59;;;;;;;11.40;7.25;;;;;;;4.90;62.31;99544.13;5086257;27;99132;-72
2023/03/08 02:50:26;;;;;;;13.40;6.45;;;;;;;4.52;63.86;99549.69;5093036;27;96757;-70
2023/03/08 02:52:53;;;;;;;14.77;6.20;;;;;;;4.68;62.86;99546.53;5085086;27;98519;-70
2023/03/08 02:55:19;;;;;;;11.75;6.18;;;;;;;4.48;63.92;99545.41;5089210;27;97856;-69
2023/03/08 02:57:47;;;;;;;17.10;7.30;;;;;;;4.60;63.49;99537.19;5091037;27;98885;-72
2023/03/08 03:00:31;;;;;;;15.45;7.38;;;;;;;4.59;63.38;99532.91;5092036;27;96723;-69
2023/03/08 03:02:58;;;;;;;16.13;7.50;;;;;;;4.85;62.79;99530.34;5086704;27;97310;-69
2023/03/08 03:05:24;;;;;;;15.27;7.32;;;;;;;4.97;62.59;99529.94;5083414;27;98866;-70
2023/03/08 03:07:51;;;;;;;19.13;7.80;;;;;;;4.95;62.02;99536.97;5087238;27;98815;-70
2023/03/08 03:10:18;;;;;;;15.07;7.25;;;;;;;5.02;62.37;99546.34;5082765;27;97328;-70
2023/03/08 03:12:44;;;;;;;12.90;7.72;;;;;;;5.10;61.91;99546.97;5079621;27;97131;-70
2023/03/08 03:15:12;;;;;;;18.77;8.18;;;;;;;5.18;62.04;99550.19;5084175;27;99363;-70
2023/03/08 03:17:39;;;;;;;24.45;8.40;;;;;;;5.35;61.28;99548.78;5085516;27;101271;-69
2023/03/08 03:20:08;;;;;;;14.07;7.93;;;;;;;5.16;61.95;99541.53;5089039;27;96870;-70
2023/03/08 03:22:34;;;;;;;10.80;7.13;;;;;;;5.20;61.24;99552.75;5082490;27;97164;-69
2023/03/08 03:25:01;;;;;;;13.95;7.18;;;;;;;5.05;61.88;99543.66;5090156;27;99459;-69
2023/03/08 03:27:27;;;;;;;15.02;7.60;;;;;;;5.19;61.74;99537.94;5087855;27;98545;-69
2023/03/08 03:29:54;;;;;;;16.38;7.60;;;;;;;5.50;60.57;99538.66;5089415;27;96795;-70
2023/03/08 03:32:22;;;;;;;18.45;7.60;;;;;;;5.30;60.56;99548.06;5090709;27;96836;-69
2023/03/08 03:34:48;;;;;;;16.42;7.68;;;;;;;5.37;60.36;99549.59;5087267;27;99246;-70
2023/03/08 03:37:16;;;;;;;15.35;7.80;;;;;;;5.08;61.22;99553.16;5092172;27;98935;-71
2023/03/08 03:39:43;;;;;;;15.52;7.75;;;;;;;4.91;62.16;99556.31;5088339;27;96840;-69
2023/03/08 03:42:10;;;;;;;14.60;7.88;;;;;;;4.99;61.65;99564.75;5088857;27;97096;-71
2023/03/08 03:44:38;;;;;;;23.75;8.55;;;;;;;4.80;62.31;99568.84;5084551;27;100503;-71
2023/03/08 03:47:05;;;;;;;17.85;7.85;;;;;;;4.86;62.48;99562.59;5090156;27;99478;-69
2023/03/08 03:49:33;;;;;;;20.58;7.75;;;;;;;5.06;61.52;99566.28;5091721;27;97009;-70
2023/03/08 03:51:59;;;;;;;17.23;8.50;;;;;;;5.19;60.85;99572.84;5081771;27;96844;-70
2023/03/08 03:54:26;;;;;;;18.75;9.30;;;;;;;4.84;62.15;99580.97;5082555;27;98881;-70
2023/03/08 03:56:56;;;;;;;15.35;8.68;;;;;;;4.94;61.72;99579.75;5083105;27;99366;-70
2023/03/08 03:59:23;;;;;;;14.95;8.57;;;;;;;5.04;61.41;99586.44;5085713;27;96722;-70
2023/03/08 04:01:49;;;;;;;17.60;8.65;;;;;;;5.25;60.77;99586.66;5082726;27;97189;-70
2023/03/08 04:04:16;;;;;;;15.55;8.55;;;;;;;5.32;60.48;99577.66;5088637;27;101852;-70
2023/03/08 04:06:44;;;;;;;18.88;9.40;;;;;;;5.06;61.54;99582.00;5082465;27;100987;-71
2023/03/08 04:09:14;;;;;;;16.90;8.90;;;;;;;4.96;61.00;99584.94;5080835;27;96800;-70
2023/03/08 04:11:41;;;;;;;14.05;8.20;;;;;;;4.99;61.66;99579.63;5079420;27;96882;-69
2023/03/08 04:14:08;;;;;;;13.73;8.02;;;;;;;5.01;61.43;99576.03;5088402;27;99192;-69
2023/03/08 04:16:36;;;;;;;18.77;8.15;;;;;;;5.28;60.59;99591.78;5090272;27;98983;-70
2023/03/08 04:19:05;;;;;;;13.10;8.45;;;;;;;5.01;60.61;99590.91;5088797;27;98862;-69
2023/03/08 04:21:31;;;;;;;15.60;8.02;;;;;;;4.68;62.29;99595.41;5085114;27;96831;-70
2023/03/08 04:23:59;;;;;;;14.57;8.43;;;;;;;4.79;61.69;99596.78;5082190;27;98882;-70
2023/03/08 04:26:27;;;;;;;16.48;7.80;;;;;;;4.65;61.88;99596.38;5084071;27;98796;-69
2023/03/08 04:28:53;;;;;;;13.20;7.70;;;;;;;4.42;63.22;99598.78;5086070;27;98849;-69
2023/03/08 04:31:22;;;;;;;14.25;7.15;;;;;;;4.86;62.27;99596.63;5086819;27;97324;-70
2023/03/08 04:33:49;;;;;;;14.77;8.13;;;;;;;5.09;61.29;99602.84;5089853;27;97963;-70
2023/03/08 04:36:17;;;;;;;14.73;7.97;;;;;;;5.03;61.09;99600.44;5080970;27;99085;-70
2023/03/08 04:38:44;;;;;;;18.73;8.38;;;;;;;5.17;59.90;99600.84;5080596;27;98100;-69
2023/03/08 04:41:12;;;;;;;16.63;7.75;;;;;;;5.11;60.25;99590.59;5083789;27;98050;-70
2023/03/08 04:43:40;;;;;;;16.55;7.57;;;;;;;5.04;60.10;99599.53;5090305;27;98528;-70
2023/03/08 04:46:08;;;;;;;14.52;6.78;;;;;;;5.07;60.54;99595.94;5077332;27;100961;-71
2023/03/08 04:48:34;;;;;;;12.45;7.47;;;;;;;5.05;59.93;99596.00;5080930;27;97146;-70
2023/03/08 04:51:03;;;;;;;14.45;7.50;;;;;;;4.85;60.62;99589.69;5080526;27;99131;-70
2023/03/08 04:53:30;;;;;;;16.05;8.00;;;;;;;4.90;60.87;99579.91;5082659;27;98208;-70
2023/03/08 04:55:58;;;;;;;13.80;7.78;;;;;;;5.01;60.26;99581.28;5081705;27;98971;-69
2023/03/08 04:58:26;;;;;;;13.52;7.72;;;;;;;5.01;60.31;99583.03;5084882;27;97298;-70
2023/03/08 05:00:53;;;;;;;16.33;8.13;;;;;;;5.16;60.01;99583.44;5088431;27;97386;-70
2023/03/08 05:03:20;;;;;;;16.90;7.88;;;;;;;4.91;60.19;99592.09;5083079;27;100519;-69
2023/03/08 05:05:47;;;;;;;16.05;7.95;;;;;;;4.83;60.54;99589.72;5085218;27;99118;-71
2023/03/08 05:08:13;;;;;;;17.75;7.75;;;;;;;4.90;59.94;99588.63;5088022;27;98140;-70
2023/03/08 05:10:40;;;;;;;12.45;7.72;;;;;;;4.93;60.14;99587.66;5086059;27;97233;-70
2023/03/08 05:13:06;;;;;;;18.73;8.25;;;;;;;5.12;60.20;99581.78;5089567;27;97756;-70
2023/03/08 05:15:34;;;;;;;21.75;8.48;;;;;;;5.12;59.24;99587.03;5081359;27;98856;-71
2023/03/08 05:18:01;;;;;;;16.17;8.35;;;;;;;4.92;60.00;99581.59;5080160;27;96847;-69
2023/03/08 05:20:27;;;;;;;13.98;8.20;;;;;;;4.88;59.74;99595.66;5087289;27;97316;-71
2023/03/08 05:22:54;;;;;;;12.68;7.70;;;;;;;5.00;59.93;99591.78;5081979;27;98776;-70
2023/03/08 05:25:20;;;;;;;13.05;7.85;;;;;;;4.87;59.68;99598.31;5082903;27;98856;-71
2023/03/08 05:27:46;;;;;;;15.63;7.90;;;;;;;4.97;59.70;99599.75;5089870;27;96888;-70
2023/03/08 05:30:13;;;;;;;13.30;7.78;;;;;;;5.13;59.02;99595.75;5082545;27;96837;-70
2023/03/08 05:32:41;;;;;;;15.32;7.68;;;;;;;5.02;59.29;99605.72;5086329;27;103108;-70
2023/03/08 05:35:09;;;;;;;12.18;7.05;;;;;;;5.07;59.31;99604.66;5082530;27;97715;-71
2023/03/08 05:37:35;;;;;;;15.40;7.50;;;;;;;5.05;59.25;99601.25;5082461;27;97237;-70
2023/03/08 05:40:04;;;;;;;13.43;7.63;;;;;;;4.93;59.57;99601.59;5086330;27;96991;-70
2023/03/08 05:42:31;;;;;;;14.65;7.88;;;;;;;4.96;58.98;99606.75;5082142;27;99591;-71
2023/03/08 05:44:58;;;;;;;12.20;7.53;;;;;;;4.97;59.15;99613.72;5078237;27;98841;-72
2023/03/08 05:47:36;;;;;;;15.77;8.02;;;;;;;5.10;59.01;99609.81;5081639;27;98367;-71
2023/03/08 05:50:04;;;;;;;13.13;8.05;;;;;;;5.11;58.93;99611.53;5088928;27;97205;-70
2023/03/08 05:52:31;;;;;;;22.48;7.45;;;;;;;5.24;58.61;99611.13;5082526;27;99161;-71
2023/03/08 05:54:58;;;;;;;13.52;7.60;;;;;;;5.32;58.80;99609.97;5080609;27;99165;-71
2023/03/08 05:57:24;;;;;;;12.25;7.28;;;;;;;5.37;58.84;99615.09;5083414;27;97804;-68
2023/03/08 05:59:50;;;;;;;14.50;7.15;;;;;;;5.33;58.44;99616.06;5087669;27;97477;-69
2023/03/08 06:02:18;;;;;;;15.75;7.28;;;;;;;5.41;58.41;99612.31;5087288;27;100772;-69
2023/03/08 06:04:45;;;;;;;12.27;6.93;;;;;;;5.47;57.98;99617.34;5081808;27;99433;-70
2023/03/08 06:07:12;;;;;;;10.65;7.18;;;;;;;5.19;58.42;99609.50;5083310;27;97309;-70
2023/03/08 06:09:39;;;;;;;17.70;7.53;;;;;;;5.26;58.65;99618.03;5089576;27;98559;-70
2023/03/08 06:12:06;;;;;;;14.50;6.75;;;;;;;5.19;58.76;99619.97;5086435;27;99410;-70
2023/03/08 06:14:32;;;;;;;11.60;7.35;;;;;;;5.17;59.02;99616.56;5079165;27;99153;-71
2023/03/08 06:16:59;;;;;;;15.85;7.78;;;;;;;5.56;58.22;99619.66;5074088;27;96859;-70
2023/03/08 06:19:25;;;;;;;11.38;7.47;;;;;;;5.19;58.44;99616.50;5087722;27;96852;-70
2023/03/08 06:21:51;;;;;;;15.57;7.55;;;;;;;5.32;58.45;99617.81;5081884;27;100103;-70
2023/03/08 06:24:21;;;;;;;10.95;7.28;;;;;;;5.51;57.83;99624.19;5080994;27;98743;-71
2023/03/08 06:26:48;;;;;;;14.02;7.10;;;;;;;5.41;57.90;99625.41;5084030;27;97482;-71
2023/03/08 06:29:15;;;;;;;13.75;6.45;;;;;;;5.73;57.31;99632.19;5080980;27;98397;-70
2023/03/08 06:31:41;;;;;;;13.02;7.28;;;;;;;5.74;57.17;99627.81;5085871;27;99161;-70
2023/03/08 06:34:07;;;;;;;14.88;6.63;;;;;;;5.46;57.70;99633.09;5087495;27;99211;-70
2023/03/08 06:36:34;;;;;;;11.77;7.40;;;;;;;5.80;57.18;99638.09;5089877;27;98879;-70
2023/03/08 06:39:01;;;;;;;13.43;7.07;;;;;;;5.46;57.35;99633.09;5088907;27;97772;-69
2023/03/08 06:41:29;;;;;;;12.82;7.60;;;;;;;5.82;56.77;99638.91;5087704;27;99142;-70
2023/03/08 06:43:56;;;;;;;14.98;6.93;;;;;;;5.72;56.51;99635.72;5085355;27;101702;-70
2023/03/08 06:46:22;;;;;;;15.77;7.28;;;;;;;5.85;56.68;99638.78;5081759;27;99568;-71
2023/03/08 06:48:49;;;;;;;10.80;6.72;;;;;;;5.94;56.13;99635.91;5085263;27;97172;-70
2023/03/08 06:51:16;;;;;;;13.10;6.90;;;;;;;5.97;56.17;99626.16;5084431;27;97825;-70
2023/03/08 06:53:42;;;;;;;14.18;6.95;;;;;;;5.91;55.85;99629.00;5085618;27;100627;-72
2023/03/08 06:56:12;;;;;;;14.73;6.80;;;;;;;6.11;55.58;99620.44;5082551;27;97704;-70
2023/03/08 06:58:40;;;;;;;14.32;7.47;;;;;;;6.20;54.96;99627.13;5090621;27;96828;-70
2023/03/08 07:01:08;;;;;;;10.63;6.75;;;;;;;6.29;55.32;99619.81;5082970;27;99250;-70
2023/03/08 07:03:35;;;;;;;12.40;7.03;;;;;;;6.41;54.64;99623.75;5085771;27;99211;-69
2023/03/08 07:06:04;;;;;;;9.60;6.32;;;;;;;6.43;54.59;99619.31;5081941;27;96987;-68
2023/03/08 07:08:31;;;;;;;10.52;6.57;;;;;;;6.16;55.28;99612.41;5087742;27;97017;-68
2023/03/08 07:10:58;;;;;;;9.85;6.47;;;;;;;6.35;54.94;99613.47;5089332;27;100017;-70
2023/03/08 07:13:25;;;;;;;11.40;6.90;;;;;;;6.53;54.22;99611.94;5076955;27;99668;-70
2023/03/08 07:15:53;;;;;;;12.60;7.20;;;;;;;6.66;53.84;99618.44;5078468;27;96756;-71
2023/03/08 07:18:19;;;;;;;13.02;7.15;;;;;;;6.43;54.39;99618.44;5079507;27;96808;-73
2023/03/08 07:20:46;;;;;;;13.27;6.75;;;;;;;6.81;53.89;99623.13;5087871;27;97522;-71
2023/03/08 07:23:12;;;;;;;12.43;7.60;;;;;;;6.76;54.18;99620.66;5076445;27;98837;-71
2023/03/08 07:25:39;;;;;;;11.05;6.25;;;;;;;6.82;53.67;99616.97;5079741;27;97373;-71
2023/03/08 07:28:06;;;;;;;14.75;7.53;;;;;;;6.79;53.98;99622.31;5082323;27;96779;-72
2023/03/08 07:30:32;;;;;;;13.23;7.40;;;;;;;6.77;54.11;99618.88;5084918;27;98849;-71
2023/03/08 07:33:00;;;;;;;16.40;7.32;;;;;;;6.74;53.68;99616.41;5081395;27;101872;-71
2023/03/08 07:35:27;;;;;;;11.45;7.03;;;;;;;7.18;53.24;99614.66;5081521;27;96763;-70
2023/03/08 07:37:53;;;;;;;12.55;7.03;;;;;;;6.97;53.68;99618.97;5076191;27;99622;-72
2023/03/08 07:40:19;;;;;;;12.52;7.50;;;;;;;6.87;53.44;99622.03;5087240;27;97539;-73
2023/03/08 07:42:46;;;;;;;14.07;7.05;;;;;;;6.67;53.60;99625.41;5081956;27;99158;-71
2023/03/08 07:45:13;;;;;;;11.48;7.32;;;;;;;6.98;53.70;99630.34;5076369;27;97020;-71
2023/03/08 07:47:40;;;;;;;8.98;6.70;;;;;;;6.83;53.51;99621.28;5083008;27;97265;-70
2023/03/08 07:50:18;;;;;;;14.32;7.55;;;;;;;7.34;52.92;99617.56;5081247;27;98838;-71
2023/03/08 07:52:45;;;;;;;11.32;7.07;;;;;;;7.09;52.67;99626.38;5081741;27;100904;-72
2023/03/08 07:55:11;;;;;;;10.23;6.65;;;;;;;7.31;52.57;99626.41;5084264;27;98461;-72
2023/03/08 07:57:38;;;;;;;13.90;7.22;;;;;;;7.31;52.13;99621.16;5078652;27;97006;-70
2023/03/08 08:00:07;;;;;;;14.07;7.55;;;;;;;7.48;52.00;99628.38;5073720;27;101307;-71
2023/03/08 08:02:33;;;;;;;10.77;7.03;;;;;;;7.51;51.86;99628.22;5080437;27;98919;-70
2023/03/08 08:05:00;;;;;;;12.75;7.22;;;;;;;7.60;51.61;99625.25;5081798;27;96780;-71
2023/03/08 08:07:28;;;;;;;8.50;6.80;;;;;;;7.47;51.15;99622.25;5077273;27;97050;-70
2023/03/08 08:09:54;;;;;;;9.70;6.75;;;;;;;7.42;51.28;99618.94;5083180;27;98984;-70
2023/03/08 08:12:22;;;;;;;10.75;6.88;;;;;;;7.71;50.60;99622.16;5079237;27;98787;-70
2023/03/08 08:14:50;;;;;;;10.82;7.53;;;;;;;7.59;50.89;99627.00;5081694;27;97163;-71
2023/03/08 08:17:17;;;;;;;11.15;7.10;;;;;;;7.69;50.24;99629.25;5088027;27;97698;-72
2023/03/08 08:19:44;;;;;;;10.63;6.18;;;;;;;7.67;49.66;99617.94;5078487;27;99116;-70
2023/03/08 08:22:10;;;;;;;11.45;7.22;;;;;;;8.04;49.74;99614.63;5079090;27;99077;-71
2023/03/08 08:24:38;;;;;;;11.75;6.80;;;;;;;8.45;48.85;99615.47;5080381;27;97773;-71
2023/03/08 08:27:06;;;;;;;10.55;6.93;;;;;;;8.58;47.98;99620.13;5078352;27;96987;-68
2023/03/08 08:29:33;;;;;;;10.57;7.63;;;;;;;8.41;48.56;99622.63;5085873;27;99398;-66
2023/03/08 08:32:04;;;;;;;9.02;6.30;;;;;;;8.57;48.12;99610.50;5083867;27;100597;-70
2023/03/08 08:34:31;;;;;;;12.88;6.88;;;;;;;8.42;47.58;99612.97;5088105;27;97206;-71
2023/03/08 08:36:57;;;;;;;10.88;6.88;;;;;;;8.43;47.93;99605.00;5081097;27;97260;-71
2023/03/08 08:39:24;;;;;;;11.85;6.07;;;;;;;8.57;47.64;99612.28;5078790;27;99239;-77
2023/03/08 08:41:52;;;;;;;12.13;7.70;;;;;;;8.16;48.32;99612.31;5079300;27;98821;-77
2023/03/08 08:44:18;;;;;;;12.00;6.78;;;;;;;8.02;48.72;99609.41;5080375;27;97563;-75
2023/03/08 08:46:45;;;;;;;11.70;7.45;;;;;;;8.24;48.09;99599.69;5083858;27;97681;-75
2023/03/08 08:49:12;;;;;;;8.45;6.25;;;;;;;8.73;47.28;99597.47;5080595;27;101801;-76
2023/03/08 08:51:38;;;;;;;11.07;6.30;;;;;;;9.34;46.04;99587.53;5086877;27;98550;-76
2023/03/08 08:54:05;;;;;;;12.85;6.25;;;;;;;9.39;45.24;99585.53;5081564;27;97619;-76
2023/03/08 08:56:31;;;;;;;12.05;6.45;;;;;;;9.42;45.25;99579.25;5076488;27;96897;-75
2023/03/08 08:59:02;;;;;;;10.10;4.93;;;;;;;8.86;44.29;99580.19;5079154;27;99132;-74
2023/03/08 09:01:30;;;;;;;10.30;5.15;;;;;;;8.85;44.88;99581.13;5084434;27;98180;-77
2023/03/08 09:03:58;;;;;;;8.30;5.00;;;;;;;9.14;44.96;99577.97;5075360;27;98889;-76
2023/03/08 09:06:27;;;;;;;8.70;4.72;;;;;;;9.20;44.44;99567.13;5075191;27;97619;-76
2023/03/08 09:08:56;;;;;;;6.18;4.35;;;;;;;9.25;43.49;99560.78;5082236;27;99345;-76
2023/03/08 09:11:23;;;;;;;6.25;4.13;;;;;;;9.59;43.81;99574.00;5079229;27;102020;-76
2023/03/08 09:13:50;;;;;;;7.40;4.50;;;;;;;9.36;43.08;99569.88;5079647;27;97343;-77
2023/03/08 09:16:20;;;;;;;5.70;3.80;;;;;;;9.26;43.09;99570.38;5077722;27;97190;-75
2023/03/08 09:18:47;;;;;;;7.80;3.90;;;;;;;9.19;43.34;99567.19;5075195;27;97721;-76
2023/03/08 09:21:14;;;;;;;8.05;3.47;;;;;;;9.30;42.96;99567.53;5075630;27;98877;-77
2023/03/08 09:23:40;;;;;;;5.38;3.53;;;;;;;8.94;43.13;99569.28;5076439;27;98842;-75
2023/03/08 09:26:07;;;;;;;5.47;3.20;;;;;;;8.75;43.56;99569.31;5077413;27;98955;-76
2023/03/08 09:28:35;;;;;;;5.63;3.33;;;;;;;8.71;43.15;99578.28;5079983;27;98943;-75
2023/03/08 09:31:10;;;;;;;4.13;2.83;;;;;;;8.68;43.04;99575.78;5078346;27;99139;-76
2023/03/08 09:33:38;;;;;;;5.67;3.27;;;;;;;8.74;42.98;99568.44;5088607;27;96928;-78
2023/03/08 09:36:05;;;;;;;3.78;2.63;;;;;;;8.76;43.40;99561.34;5084873;27;96749;-76
2023/03/08 09:38:32;;;;;;;5.85;2.83;;;;;;;8.95;42.80;99566.59;5082795;27;98799;-76
2023/03/08 09:41:11;;;;;;;6.95;3.17;;;;;;;9.07;42.54;99566.00;5082108;27;98146;-76
2023/03/08 09:43:44;;;;;;;4.30;3.00;;;;;;;9.12;42.29;99553.44;5078697;27;96771;-76
2023/03/08 09:46:13;;;;;;;4.93;2.80;;;;;;;9.55;41.13;99557.47;5079059;27;98391;-77
2023/03/08 09:48:47;;;;;;;5.15;3.15;;;;;;;9.48;41.14;99561.34;5076424;27;98876;-76
2023/03/08 09:51:16;;;;;;;5.25;2.92;;;;;;;9.71;40.61;99557.59;5082560;27;98870;-76
2023/03/08 09:53:47;;;;;;;5.53;2.83;;;;;;;9.78;39.96;99553.66;5075479;27;96991;-75
2023/03/08 09:56:19;;;;;;;8.60;4.10;;;;;;;9.59;40.47;99552.91;5081216;27;96889;-76
2023/03/08 09:58:53;;;;;;;10.75;2.55;;;;;;;9.62;40.09;99544.84;5070405;27;100085;-76
2023/03/08 10:01:27;;;;;;;2.90;2.42;;;;;;;9.90;40.08;99546.94;5081910;27;100495;-76
2023/03/08 10:04:12;;;;;;;6.85;3.22;;;;;;;9.84;39.76;99540.19;5082394;27;97544;-76
2023/03/08 10:06:45;;;;;;;3.75;2.15;;;;;;;10.07;38.24;99531.06;5079226;27;96954;-76
2023/03/08 10:09:26;;;;;;;2.55;2.20;;;;;;;10.12;38.71;99525.53;5078750;27;98912;-77
2023/03/08 10:12:01;;;;;;;5.55;2.40;;;;;;;10.42;38.38;99518.66;5079176;27;100082;-77
2023/03/08 10:14:32;;;;;;;5.85;2.08;;;;;;;10.28;38.42;99526.47;5075388;27;97046;-76
2023/03/08 10:17:04;;;;;;;5.13;2.38;;;;;;;10.67;37.94;99520.81;5083606;27;97314;-75
2023/03/08 10:19:38;;;;;;;4.55;2.40;;;;;;;10.57;37.84;99530.16;5077074;27;100354;-78
2023/03/08 10:22:09;;;;;;;4.53;2.63;;;;;;;10.40;37.95;99520.53;5079776;27;98672;-76
2023/03/08 10:25:02;;;;;;;7.07;2.00;;;;;;;10.43;36.83;99515.09;5073460;27;97999;-76
2023/03/08 10:27:33;;;;;;;4.95;2.17;;;;;;;10.10;38.09;99516.88;5075419;27;98783;-77
2023/03/08 10:30:02;;;;;;;6.15;2.30;;;;;;;10.22;37.72;99513.59;5078473;27;99572;-76
2023/03/08 10:32:29;;;;;;;6.65;2.33;;;;;;;10.26;38.04;99513.34;5082443;27;98848;-76
2023/03/08 10:35:02;;;;;;;6.07;2.17;;;;;;;10.48;37.21;99515.69;5075062;27;99424;-76
2023/03/08 10:37:31;;;;;;;3.60;2.20;;;;;;;9.78;37.72;99519.38;5074937;27;97620;-76
2023/03/08 10:40:04;;;;;;;2.70;1.92;;;;;;;9.94;38.06;99517.66;5073142;27;98879;-75
2023/03/08 10:42:32;;;;;;;1.80;1.70;;;;;;;9.99;38.22;99520.91;5081461;27;98868;-76
2023/03/08 10:45:01;;;;;;;2.95;1.90;;;;;;;9.98;37.63;99513.91;5072121;27;98739;-77
2023/03/08 10:47:29;;;;;;;3.85;2.25;;;;;;;10.15;37.93;99512.19;5078650;27;97474;-77
2023/03/08 10:50:11;;;;;;;3.72;2.40;;;;;;;10.26;37.38;99502.78;5074677;27;99042;-77
2023/03/08 10:52:38;;;;;;;8.00;2.90;;;;;;;10.20;37.90;99489.06;5072443;27;98112;-76
2023/03/08 10:55:07;;;;;;;6.75;2.33;;;;;;;10.19;37.52;99495.28;5076435;27;97540;-76
2023/03/08 10:57:33;;;;;;;7.30;3.05;;;;;;;10.25;38.17;99492.31;5073734;27;99555;-76
2023/03/08 11:00:08;;;;;;;6.60;2.97;;;;;;;10.01;38.57;99491.81;5081882;27;98813;-77
2023/03/08 11:02:34;;;;;;;3.58;2.90;;;;;;;10.06;38.78;99488.91;5078938;27;97945;-76
2023/03/08 11:05:00;;;;;;;5.40;3.42;;;;;;;9.90;38.20;99481.81;5078060;27;96821;-76
2023/03/08 11:07:30;;;;;;;4.90;3.05;;;;;;;10.52;37.35;99474.09;5077461;27;96871;-76
2023/03/08 11:10:18;;;;;;;4.95;3.10;;;;;;;10.62;37.83;99478.81;5073838;27;99096;-75
2023/03/08 11:12:45;;;;;;;6.35;3.03;;;;;;;10.67;37.56;99476.75;5082017;27;98870;-76
2023/03/08 11:15:15;;;;;;;3.50;3.20;;;;;;;10.63;38.52;99469.09;5073335;27;96813;-77
2023/03/08 11:17:52;;;;;;;4.70;2.92;;;;;;;10.64;37.72;99466.34;5078941;27;97202;-77
2023/03/08 11:20:23;;;;;;;4.15;2.90;;;;;;;10.89;37.39;99467.63;5080857;27;97092;-77
2023/03/08 11:23:03;;;;;;;5.00;2.58;;;;;;;10.99;36.50;99460.88;5082771;27;98717;-77
2023/03/08 11:25:38;;;;;;;5.43;3.45;;;;;;;10.76;37.92;99459.53;5083822;27;96760;-77
2023/03/08 11:28:28;;;;;;;6.40;3.28;;;;;;;10.56;37.64;99452.75;5075291;27;96807;-76
2023/03/08 11:31:04;;;;;;;4.97;3.15;;;;;;;10.67;37.85;99441.56;5061026;27;99296;-77
2023/03/08 11:33:45;;;;;;;6.85;3.55;;;;;;;10.73;37.95;99438.56;5079490;27;101753;-76
2023/03/08 11:36:17;;;;;;;7.07;3.08;;;;;;;10.95;37.50;99438.22;5084786;27;96856;-77
2023/03/08 11:38:54;;;;;;;5.28;2.95;;;;;;;11.34;36.83;99427.94;5087959;27;96772;-77